메인 페이지
METAR-TAF:

METAR-TAF

공항 :

히스로 공항

런던 / 히드로, 잉글랜드

위도: 51-29N, 경도: 000-27W, 고도: 24m

현재 날씨관측

예보는 24분 전, 21:50시(UTC)에 발표되었습니다.
남서11kt
온도 19°C
습도 78%
기압 1021 hPa
시정 10km 이상
고도 2200ft 상공 흐림

METAR: EGLL 182150Z AUTO 23011KT 9999 OVC022 19/15 Q1021 NOSIG

시각: 23:14 (22:14 UTC)

예보

예보는 5 시간 21분 전, 16:53시(UTC)에 발표되었습니다.
예보 대상 시간: 18일 18시부터 19일 24시까지 (UTC)
남서8kt
시정 10km 이상
고도 3000ft 상공 구름 많음
일시적
19일 02시부터 19일 09시까지 (UTC)
고도 800ft 상공 구름 보통
고도 1200ft 상공 구름 많음
확률 30% :
일시적
19일 03시부터 19일 08시까지 (UTC)
시정: 6000m
고도 800ft 상공 구름 많음
약한비, 이슬비
확률 30% :
일시적
19일 09시부터 19일 16시까지 (UTC)
남서15kt, 순간 최대 풍속 25kt
시정: 8000m
고도 1400ft 상공 구름 많음
약한비, 이슬비

TAF: EGLL 181653Z 1818/1924 23008KT 9999 BKN030 TEMPO 1902/1909 SCT008 BKN012 PROB30 TEMPO 1903/1908 6000 -RADZ BKN008 PROB30 TEMPO 1909/1916 22015G25KT 8000 -RADZ BKN014

4,000개 이상의 공항 관측 자료 및 예보 (METAR 및 TAF 보고).

지도상에서 검색 가능한 기상관측소가 노란 점과 빨간 점으로 표시되어 있습니다.

기상관측소 명을 보려면 표시 위로 마우스를 이동하세요.

날씨 관측과 예보를 보려면 클릭하세요.

지도 변경 : 확대하려면 엑스 표시가 있는 녹색 버튼, 축소하려면 빼기 표시가 있는 녹색 버튼, 다음 페이지의 지도를 보려면 녹색 화살표를 클릭하세요.


METAR-TAF: